Time;durP1;ratioP1;P1;durP2;ratioP2;P2;SDS_P1;SDS_P2;PMS_P1;PMS_P2;Temp;Humidity;BMP_temperature;BMP_pressure;BME280_temperature;BME280_humidity;BME280_pressure;Samples;Min_cycle;Max_cycle;Signal;HPM_P1;HPM_P2
2022/03/10 00:02:14;;;;;;;14.20;11.80;;;0.10;99.90;;;;;;4986071;28;20234;-66
2022/03/10 00:04:39;;;;;;;14.70;10.57;;;0.10;99.90;;;;;;4988785;28;20207;-65
2022/03/10 00:07:05;;;;;;;16.37;12.40;;;0.10;99.90;;;;;;4989152;28;20230;-63
2022/03/10 00:09:33;;;;;;;16.67;12.98;;;0.00;99.90;;;;;;4987867;28;20259;-65
2022/03/10 00:12:02;;;;;;;14.20;12.27;;;0.10;99.90;;;;;;4989035;28;20184;-65
2022/03/10 00:14:28;;;;;;;14.55;11.77;;;0.00;99.90;;;;;;4975243;28;20331;-66
2022/03/10 00:16:54;;;;;;;12.02;10.70;;;0.00;99.90;;;;;;4989034;28;20583;-65
2022/03/10 00:19:20;;;;;;;16.27;11.00;;;0.00;99.90;;;;;;4987906;28;20208;-65
2022/03/10 00:21:47;;;;;;;15.53;11.87;;;-0.10;99.90;;;;;;4988885;28;20216;-65
2022/03/10 00:24:14;;;;;;;15.40;11.52;;;-0.20;99.90;;;;;;4983806;28;20486;-65
2022/03/10 00:26:41;;;;;;;13.30;10.95;;;-0.20;99.90;;;;;;4988954;28;20199;-57
2022/03/10 00:29:07;;;;;;;16.77;11.68;;;-0.20;99.90;;;;;;4988031;28;20215;-65
2022/03/10 00:31:33;;;;;;;14.23;11.20;;;-0.30;99.90;;;;;;4988108;28;20224;-66
2022/03/10 00:33:58;;;;;;;17.67;12.17;;;-0.40;99.90;;;;;;4988274;28;20193;-65
2022/03/10 00:36:24;;;;;;;17.10;11.07;;;-0.40;99.90;;;;;;4988069;28;20295;-65
2022/03/10 00:38:50;;;;;;;14.00;11.37;;;-0.40;99.90;;;;;;4987526;28;20219;-65
2022/03/10 00:41:15;;;;;;;16.42;12.70;;;-0.40;99.90;;;;;;4980112;28;20195;-65
2022/03/10 00:43:41;;;;;;;15.43;11.90;;;-0.40;99.90;;;;;;4986412;28;20907;-63
2022/03/10 00:46:07;;;;;;;18.83;11.70;;;-0.40;99.90;;;;;;4989282;28;20196;-62
2022/03/10 00:48:33;;;;;;;17.83;12.10;;;-0.40;99.90;;;;;;4988613;28;20532;-63
2022/03/10 00:50:58;;;;;;;15.50;12.00;;;-0.50;99.90;;;;;;4970423;28;20187;-63
2022/03/10 00:53:24;;;;;;;17.97;12.03;;;-0.50;99.90;;;;;;4990262;28;20271;-65
2022/03/10 00:55:50;;;;;;;15.33;12.23;;;-0.50;99.90;;;;;;4989114;28;20713;-63
2022/03/10 00:58:15;;;;;;;16.67;11.87;;;-0.50;99.90;;;;;;4988380;28;21028;-65
2022/03/10 01:00:41;;;;;;;16.60;12.60;;;-0.60;99.90;;;;;;4988414;28;20194;-66
2022/03/10 01:03:06;;;;;;;16.67;12.27;;;-0.60;99.90;;;;;;4988347;28;20275;-66
2022/03/10 01:05:32;;;;;;;15.37;11.93;;;-0.70;99.90;;;;;;4987609;28;20710;-62
2022/03/10 01:07:58;;;;;;;16.07;12.30;;;-0.70;99.90;;;;;;4988195;28;20654;-63
2022/03/10 01:10:24;;;;;;;13.43;11.10;;;-0.70;99.90;;;;;;4987804;28;20829;-65
2022/03/10 01:12:50;;;;;;;16.67;11.90;;;-0.70;99.90;;;;;;4986159;28;20207;-65
2022/03/10 01:15:18;;;;;;;14.02;11.20;;;-0.70;99.90;;;;;;4993498;28;20219;-65
2022/03/10 01:17:44;;;;;;;17.50;12.20;;;-0.70;99.90;;;;;;4971574;28;20611;-65
2022/03/10 01:20:11;;;;;;;17.42;12.75;;;-0.70;99.90;;;;;;4986812;28;20258;-63
2022/03/10 01:22:37;;;;;;;17.08;11.80;;;-0.70;99.90;;;;;;4991461;28;20194;-65
2022/03/10 01:25:07;;;;;;;16.70;11.83;;;-0.70;99.90;;;;;;4992843;28;20180;-66
2022/03/10 01:27:33;;;;;;;15.68;12.40;;;-0.70;99.90;;;;;;4992020;28;20445;-65
2022/03/10 01:29:59;;;;;;;15.35;11.57;;;-0.70;99.90;;;;;;4987727;28;20263;-65
2022/03/10 01:32:25;;;;;;;16.15;13.00;;;-0.70;99.90;;;;;;4991909;28;20188;-65
2022/03/10 01:34:51;;;;;;;15.77;12.40;;;-0.70;99.90;;;;;;4993588;28;20211;-62
2022/03/10 01:37:16;;;;;;;17.30;13.15;;;-0.70;99.90;;;;;;4990613;28;20232;-63
2022/03/10 01:39:42;;;;;;;19.57;13.87;;;-0.80;99.90;;;;;;4990268;28;20197;-65
2022/03/10 01:42:07;;;;;;;18.93;13.00;;;-0.80;99.90;;;;;;4992644;28;20200;-65
2022/03/10 01:44:34;;;;;;;19.03;13.03;;;-0.80;99.90;;;;;;4993521;28;20667;-63
2022/03/10 01:47:01;;;;;;;14.95;11.30;;;-0.80;99.90;;;;;;4991278;28;20199;-66
2022/03/10 01:49:27;;;;;;;15.30;12.32;;;-0.80;99.90;;;;;;4989636;28;20184;-66
2022/03/10 01:51:53;;;;;;;17.42;12.75;;;-0.90;99.90;;;;;;4991037;28;20188;-63
2022/03/10 01:54:20;;;;;;;20.30;13.23;;;-0.90;99.90;;;;;;4991581;28;20169;-63
2022/03/10 01:56:46;;;;;;;18.13;12.82;;;-0.90;99.90;;;;;;4991648;28;20467;-63
2022/03/10 01:59:12;;;;;;;17.25;12.50;;;-0.90;99.90;;;;;;4991577;28;20188;-64
2022/03/10 02:01:38;;;;;;;17.40;12.67;;;-0.90;99.90;;;;;;4989753;28;20239;-64
2022/03/10 02:04:03;;;;;;;19.47;12.67;;;-0.90;99.90;;;;;;4990550;28;20691;-64
2022/03/10 02:06:29;;;;;;;19.07;14.07;;;-1.00;99.90;;;;;;4991155;28;20189;-63
2022/03/10 02:11:39;;;;;;;16.35;12.68;;;-1.00;99.90;;;;;;4991567;28;20489;-65
2022/03/10 02:19:34;;;;;;;16.52;13.32;;;-1.10;99.90;;;;;;4990599;28;20238;-60
2022/03/10 02:22:20;;;;;;;16.27;12.50;;;-1.20;99.90;;;;;;4990265;28;20181;-63
2022/03/10 02:24:46;;;;;;;19.85;13.88;;;-1.20;99.90;;;;;;4987695;28;20222;-64
2022/03/10 02:27:29;;;;;;;17.60;12.95;;;-1.20;99.90;;;;;;4991468;28;20222;-64
2022/03/10 02:30:02;;;;;;;16.35;12.85;;;-1.20;99.90;;;;;;4990228;28;20184;-64
2022/03/10 02:32:28;;;;;;;18.30;12.73;;;-1.20;99.90;;;;;;4980208;28;20184;-63
2022/03/10 02:34:53;;;;;;;19.97;13.10;;;-1.20;99.90;;;;;;4989896;28;20192;-64
2022/03/10 02:37:19;;;;;;;19.57;13.47;;;-1.20;99.90;;;;;;4989850;28;20273;-64
2022/03/10 02:39:46;;;;;;;16.10;12.25;;;-1.20;99.90;;;;;;4988342;28;20184;-64
2022/03/10 02:42:15;;;;;;;16.92;12.80;;;-1.20;99.90;;;;;;4992025;28;20227;-64
2022/03/10 02:44:42;;;;;;;18.20;13.35;;;-1.20;99.90;;;;;;4989566;28;20533;-64
2022/03/10 02:47:08;;;;;;;15.65;12.32;;;-1.20;99.90;;;;;;4989867;28;20200;-64
2022/03/10 02:49:34;;;;;;;19.20;13.60;;;-1.20;99.90;;;;;;4991226;28;20184;-64
2022/03/10 02:52:03;;;;;;;17.00;12.23;;;-1.20;99.90;;;;;;4991202;28;20188;-64
2022/03/10 02:54:29;;;;;;;19.60;13.27;;;-1.30;99.90;;;;;;4989471;28;20947;-64
2022/03/10 02:56:54;;;;;;;16.63;12.65;;;-1.30;99.90;;;;;;4990507;28;20200;-64
2022/03/10 02:59:20;;;;;;;19.57;13.70;;;-1.30;99.90;;;;;;4983782;28;20215;-64
2022/03/10 03:01:45;;;;;;;16.60;13.10;;;-1.30;99.90;;;;;;4989393;28;20260;-63
2022/03/10 03:04:11;;;;;;;18.27;13.10;;;-1.30;99.90;;;;;;4990640;28;20518;-64
2022/03/10 03:06:37;;;;;;;17.63;12.80;;;-1.40;99.90;;;;;;4988771;28;20736;-64
2022/03/10 03:09:03;;;;;;;16.57;12.90;;;-1.40;99.90;;;;;;4989219;28;20200;-64
2022/03/10 03:11:28;;;;;;;17.03;13.27;;;-1.40;99.90;;;;;;4989913;28;20662;-64
2022/03/10 03:13:54;;;;;;;17.60;11.97;;;-1.40;99.90;;;;;;4989401;28;20479;-64
2022/03/10 03:16:19;;;;;;;17.60;11.93;;;-1.50;99.90;;;;;;4988576;28;20208;-62
2022/03/10 03:18:45;;;;;;;16.00;11.77;;;-1.50;99.90;;;;;;4990584;28;20168;-64
2022/03/10 03:21:10;;;;;;;18.40;12.60;;;-1.50;99.90;;;;;;4989052;28;20191;-64
2022/03/10 03:23:36;;;;;;;14.77;10.90;;;-1.50;99.90;;;;;;4988368;28;20188;-64
2022/03/10 03:26:01;;;;;;;17.20;12.10;;;-1.50;99.90;;;;;;4988412;28;20196;-64
2022/03/10 03:28:27;;;;;;;16.00;12.23;;;-1.50;99.90;;;;;;4989843;28;20985;-64
2022/03/10 03:30:52;;;;;;;16.40;11.60;;;-1.50;99.90;;;;;;4989154;28;20211;-63
2022/03/10 03:33:18;;;;;;;13.80;11.03;;;-1.50;99.90;;;;;;4979837;28;20192;-64
2022/03/10 03:35:44;;;;;;;15.20;11.00;;;-1.50;99.90;;;;;;4988313;28;20205;-64
2022/03/10 03:38:11;;;;;;;16.40;11.77;;;-1.50;99.90;;;;;;4988892;28;20190;-64
2022/03/10 03:40:37;;;;;;;21.52;12.18;;;-1.40;99.90;;;;;;4991977;28;20773;-64
2022/03/10 03:43:03;;;;;;;14.60;11.50;;;-1.40;99.90;;;;;;4994794;28;20183;-63
2022/03/10 03:45:28;;;;;;;18.00;12.03;;;-1.40;99.90;;;;;;4990561;28;20964;-64
2022/03/10 03:47:54;;;;;;;18.00;13.03;;;-1.40;99.90;;;;;;4989489;28;20576;-65
2022/03/10 03:50:20;;;;;;;16.57;11.43;;;-1.40;99.90;;;;;;4981634;28;20196;-64
2022/03/10 03:52:45;;;;;;;19.10;12.40;;;-1.40;99.90;;;;;;4990541;28;20242;-64
2022/03/10 03:55:12;;;;;;;18.57;12.37;;;-1.40;99.90;;;;;;4970995;28;20443;-64
2022/03/10 03:57:38;;;;;;;18.35;12.63;;;-1.40;99.90;;;;;;4988804;28;20751;-64
2022/03/10 04:00:06;;;;;;;16.77;12.37;;;-1.40;99.90;;;;;;4986059;28;20215;-64
2022/03/10 04:02:31;;;;;;;16.35;12.13;;;-1.40;99.90;;;;;;4971823;28;20215;-63
2022/03/10 04:04:57;;;;;;;16.60;11.77;;;-1.40;99.90;;;;;;4986652;28;20328;-62
2022/03/10 04:07:22;;;;;;;16.60;12.00;;;-1.40;99.90;;;;;;4987959;28;20264;-64
2022/03/10 04:09:48;;;;;;;16.23;11.77;;;-1.50;99.90;;;;;;4986731;28;20654;-64
2022/03/10 04:12:14;;;;;;;16.23;12.17;;;-1.50;99.90;;;;;;4988393;28;20223;-63
2022/03/10 04:14:39;;;;;;;14.20;11.70;;;-1.50;99.90;;;;;;4990315;28;20863;-64
2022/03/10 04:17:05;;;;;;;16.00;11.13;;;-1.50;99.90;;;;;;4987056;28;20212;-65
2022/03/10 04:19:30;;;;;;;15.00;11.83;;;-1.50;99.90;;;;;;4970881;28;20665;-63
2022/03/10 04:21:56;;;;;;;15.50;11.50;;;-1.50;99.90;;;;;;4988147;28;20973;-64
2022/03/10 04:24:22;;;;;;;14.57;10.87;;;-1.50;99.90;;;;;;4987401;28;20191;-64
2022/03/10 04:26:48;;;;;;;14.63;11.57;;;-1.50;99.90;;;;;;4987665;28;20184;-63
2022/03/10 04:29:14;;;;;;;17.67;10.90;;;-1.50;99.90;;;;;;4988054;28;20192;-64
2022/03/10 04:31:40;;;;;;;14.70;10.65;;;-1.50;99.90;;;;;;4988996;28;20203;-64
2022/03/10 04:34:06;;;;;;;18.98;10.55;;;-1.50;99.90;;;;;;4989844;28;20261;-64
2022/03/10 04:36:32;;;;;;;13.30;9.60;;;-1.50;99.90;;;;;;4989749;28;20239;-60
2022/03/10 04:38:57;;;;;;;14.20;11.20;;;-1.50;99.90;;;;;;4969977;28;20439;-64
2022/03/10 04:41:23;;;;;;;17.83;10.33;;;-1.60;99.90;;;;;;4991998;28;20188;-64
2022/03/10 04:43:49;;;;;;;14.90;10.80;;;-1.60;99.90;;;;;;4987383;28;20180;-65
2022/03/10 04:46:14;;;;;;;14.03;10.90;;;-1.60;99.90;;;;;;4987964;28;20180;-64
2022/03/10 04:48:40;;;;;;;14.90;11.13;;;-1.60;99.90;;;;;;4991840;28;20184;-64
2022/03/10 04:51:05;;;;;;;14.90;9.53;;;-1.60;99.90;;;;;;4992409;28;20188;-63
2022/03/10 04:53:31;;;;;;;15.70;11.00;;;-1.60;99.90;;;;;;4991233;28;20725;-64
2022/03/10 04:55:56;;;;;;;13.57;10.43;;;-1.60;99.90;;;;;;4991070;28;20572;-65
2022/03/10 04:58:22;;;;;;;15.67;10.50;;;-1.60;99.90;;;;;;4988589;28;20176;-66
2022/03/10 05:00:47;;;;;;;16.40;10.87;;;-1.60;99.90;;;;;;4992134;28;20704;-63
2022/03/10 05:03:13;;;;;;;20.30;11.63;;;-1.70;99.90;;;;;;4992670;28;20274;-64
2022/03/10 05:05:39;;;;;;;16.27;10.85;;;-1.70;99.90;;;;;;4966977;28;20295;-64
2022/03/10 05:08:05;;;;;;;15.33;10.20;;;-1.80;99.90;;;;;;4988986;28;20359;-64
2022/03/10 05:10:30;;;;;;;13.73;10.50;;;-1.80;99.90;;;;;;4992357;28;20185;-65
2022/03/10 05:12:59;;;;;;;19.10;12.30;;;-1.90;99.90;;;;;;4991412;28;20216;-64
2022/03/10 05:15:32;;;;;;;14.80;10.77;;;-1.90;99.90;;;;;;4992154;28;20187;-59
2022/03/10 05:18:00;;;;;;;16.20;11.25;;;-1.90;99.90;;;;;;4972589;28;20204;-65
2022/03/10 05:20:26;;;;;;;15.40;11.32;;;-1.90;99.90;;;;;;4970713;28;20238;-65
2022/03/10 05:22:53;;;;;;;17.20;11.00;;;-1.90;99.90;;;;;;4971835;28;20193;-60
2022/03/10 05:25:21;;;;;;;16.52;12.40;;;-2.00;99.90;;;;;;4970336;28;20193;-65
2022/03/10 05:27:47;;;;;;;16.83;12.68;;;-2.00;99.90;;;;;;4972049;28;20197;-66
2022/03/10 05:30:14;;;;;;;17.00;12.07;;;-2.00;99.90;;;;;;4966038;28;20609;-63
2022/03/10 05:32:40;;;;;;;17.20;12.05;;;-2.00;99.90;;;;;;4962730;28;20440;-65
2022/03/10 05:35:08;;;;;;;15.43;12.67;;;-2.00;99.90;;;;;;4975980;28;20545;-64
2022/03/10 05:37:38;;;;;;;17.00;12.65;;;-2.00;99.90;;;;;;4988386;28;20467;-65
2022/03/10 05:40:11;;;;;;;19.95;13.02;;;-2.00;99.90;;;;;;4991851;28;20212;-65
2022/03/10 05:42:38;;;;;;;20.45;13.00;;;-2.00;99.90;;;;;;4991767;28;20199;-65
2022/03/10 05:45:05;;;;;;;19.50;13.20;;;-2.10;99.90;;;;;;4986595;28;20177;-65
2022/03/10 05:47:31;;;;;;;16.58;13.15;;;-2.00;99.90;;;;;;4990154;28;20192;-64
2022/03/10 05:49:56;;;;;;;19.57;13.57;;;-2.00;99.90;;;;;;4991528;28;20535;-64
2022/03/10 05:52:22;;;;;;;19.30;12.60;;;-2.00;99.90;;;;;;4991977;28;20184;-64
2022/03/10 05:54:47;;;;;;;15.80;12.50;;;-2.00;99.90;;;;;;4990551;28;20302;-64
2022/03/10 05:57:13;;;;;;;16.63;11.50;;;-2.00;99.90;;;;;;4991671;28;20243;-64
2022/03/10 05:59:38;;;;;;;18.27;12.53;;;-2.00;99.90;;;;;;4991181;28;20603;-64
2022/03/10 06:02:04;;;;;;;18.97;12.87;;;-2.00;99.90;;;;;;4992584;28;20309;-67
2022/03/10 06:04:29;;;;;;;16.70;13.27;;;-2.00;99.90;;;;;;4993529;28;20266;-65
2022/03/10 06:06:55;;;;;;;16.60;11.37;;;-2.00;99.90;;;;;;4993002;28;20208;-64
2022/03/10 06:09:21;;;;;;;18.50;13.03;;;-2.00;99.90;;;;;;4991879;28;20184;-63
2022/03/10 06:11:46;;;;;;;18.90;12.57;;;-2.00;99.90;;;;;;4991907;28;20219;-65
2022/03/10 06:14:12;;;;;;;15.60;11.90;;;-2.00;99.90;;;;;;4972403;28;20224;-65
2022/03/10 06:16:38;;;;;;;16.97;11.67;;;-1.90;99.90;;;;;;4970377;28;20263;-65
2022/03/10 06:19:04;;;;;;;21.35;13.48;;;-1.90;99.90;;;;;;4971957;28;20595;-65
2022/03/10 06:21:29;;;;;;;17.27;12.30;;;-1.80;99.90;;;;;;4971446;28;20185;-65
2022/03/10 06:23:55;;;;;;;19.23;13.07;;;-1.70;99.90;;;;;;4972385;28;20452;-65
2022/03/10 06:26:21;;;;;;;17.93;12.53;;;-1.80;99.90;;;;;;4972165;28;20239;-65
2022/03/10 06:28:47;;;;;;;17.13;12.50;;;-1.70;99.90;;;;;;4972556;28;20500;-64
2022/03/10 06:31:12;;;;;;;19.13;13.05;;;-1.70;99.90;;;;;;4972712;28;20239;-65
2022/03/10 06:33:38;;;;;;;16.60;12.40;;;-1.70;99.90;;;;;;4972124;28;20202;-64
2022/03/10 06:36:05;;;;;;;18.97;12.60;;;-1.70;99.90;;;;;;4971036;28;20258;-65
2022/03/10 06:38:31;;;;;;;18.65;13.40;;;-1.70;99.90;;;;;;4972585;28;20189;-63
2022/03/10 06:40:56;;;;;;;17.08;11.82;;;-1.70;99.90;;;;;;4982043;28;20191;-66
2022/03/10 06:43:22;;;;;;;15.77;11.93;;;-1.60;99.90;;;;;;4972843;28;20181;-65
2022/03/10 06:45:48;;;;;;;17.27;11.90;;;-1.60;99.90;;;;;;4971053;28;21002;-64
2022/03/10 06:48:13;;;;;;;18.40;13.33;;;-1.50;99.90;;;;;;4972050;28;20550;-64
2022/03/10 06:50:39;;;;;;;19.63;12.80;;;-1.40;99.90;;;;;;4972515;28;20224;-64
2022/03/10 06:53:05;;;;;;;21.70;12.97;;;-1.50;99.90;;;;;;4966901;28;20189;-65
2022/03/10 06:55:30;;;;;;;17.47;12.87;;;-1.40;99.90;;;;;;4971805;28;20300;-65
2022/03/10 06:57:57;;;;;;;16.93;12.33;;;-1.30;99.90;;;;;;4968937;28;20894;-64
2022/03/10 07:00:24;;;;;;;21.88;14.05;;;-1.30;99.90;;;;;;4970299;28;20231;-64
2022/03/10 07:02:50;;;;;;;17.90;14.25;;;-1.20;99.90;;;;;;4973692;28;20208;-67
2022/03/10 07:05:15;;;;;;;19.67;13.13;;;-1.10;99.90;;;;;;4971360;28;20173;-64
2022/03/10 07:07:41;;;;;;;21.70;14.10;;;-1.00;99.90;;;;;;4972543;28;20235;-66
2022/03/10 07:10:08;;;;;;;21.17;13.80;;;-0.90;99.90;;;;;;4972358;28;20343;-66
2022/03/10 07:12:39;;;;;;;15.13;12.73;;;-0.80;99.90;;;;;;4972077;28;20488;-64
2022/03/10 07:15:07;;;;;;;20.88;14.38;;;-0.80;99.90;;;;;;4991070;28;20263;-65
2022/03/10 07:17:32;;;;;;;19.08;13.13;;;-0.70;99.90;;;;;;4972994;28;20580;-64
2022/03/10 07:19:58;;;;;;;19.30;13.73;;;-0.60;99.90;;;;;;4991548;28;20192;-64
2022/03/10 07:22:24;;;;;;;17.67;11.80;;;-0.60;99.90;;;;;;4990200;28;20181;-65
2022/03/10 07:24:50;;;;;;;18.93;12.97;;;-0.50;99.90;;;;;;4990606;28;20193;-66
2022/03/10 07:27:15;;;;;;;16.75;13.25;;;-0.40;99.90;;;;;;4972947;28;20183;-65
2022/03/10 07:29:41;;;;;;;18.70;14.10;;;-0.30;99.90;;;;;;4972785;28;20184;-65
2022/03/10 07:32:07;;;;;;;19.10;12.90;;;-0.10;99.90;;;;;;4989302;28;20247;-65
2022/03/10 07:34:32;;;;;;;18.53;13.77;;;0.00;99.90;;;;;;4988950;28;20196;-65
2022/03/10 07:36:58;;;;;;;19.43;14.10;;;0.10;99.90;;;;;;4992269;28;20836;-64
2022/03/10 07:39:23;;;;;;;15.57;12.90;;;0.10;99.90;;;;;;5000373;28;20241;-65
2022/03/10 07:41:49;;;;;;;18.13;14.03;;;0.30;99.90;;;;;;5001934;28;20181;-65
2022/03/10 07:44:15;;;;;;;21.23;13.70;;;0.40;99.90;;;;;;5002384;28;20682;-65
2022/03/10 07:46:40;;;;;;;17.87;13.37;;;0.50;99.90;;;;;;4996484;28;20184;-65
2022/03/10 07:49:06;;;;;;;18.40;13.83;;;0.60;99.90;;;;;;4999636;28;21018;-65
2022/03/10 07:51:31;;;;;;;17.37;13.97;;;0.70;99.90;;;;;;5000975;28;21407;-66
2022/03/10 07:53:57;;;;;;;22.10;13.33;;;0.80;99.90;;;;;;4996014;28;20188;-65
2022/03/10 07:56:23;;;;;;;16.93;13.50;;;0.90;99.90;;;;;;4998029;28;20199;-65
2022/03/10 07:58:48;;;;;;;19.60;14.67;;;1.00;99.90;;;;;;4986251;28;20171;-64
2022/03/10 08:01:14;;;;;;;16.20;12.77;;;1.20;99.90;;;;;;4998556;28;20171;-64
2022/03/10 08:03:40;;;;;;;18.23;13.37;;;1.30;99.90;;;;;;5000003;28;20255;-63
2022/03/10 08:06:05;;;;;;;18.00;13.63;;;1.50;99.90;;;;;;4997452;28;20295;-65
2022/03/10 08:08:31;;;;;;;18.60;14.07;;;1.70;99.90;;;;;;4978686;28;20642;-65
2022/03/10 08:10:57;;;;;;;18.67;14.20;;;1.90;99.90;;;;;;4977217;28;20223;-66
2022/03/10 08:13:26;;;;;;;16.83;13.00;;;2.10;99.90;;;;;;4982136;28;20239;-66
2022/03/10 08:15:53;;;;;;;17.65;12.18;;;2.30;99.90;;;;;;4976657;28;20235;-65
2022/03/10 08:18:20;;;;;;;16.70;13.02;;;2.60;99.90;;;;;;4970135;28;20205;-66
2022/03/10 08:20:46;;;;;;;15.90;12.75;;;2.90;99.90;;;;;;4955290;28;20169;-65
2022/03/10 08:23:11;;;;;;;17.30;12.83;;;3.20;99.90;;;;;;4981443;28;20208;-64
2022/03/10 08:25:39;;;;;;;16.60;13.53;;;3.50;99.90;;;;;;4993380;28;20415;-63
2022/03/10 08:28:06;;;;;;;19.08;13.55;;;4.20;99.90;;;;;;4985636;28;20254;-63
2022/03/10 08:30:32;;;;;;;16.30;12.85;;;4.90;99.90;;;;;;4995494;28;20192;-67
2022/03/10 08:32:57;;;;;;;17.23;13.87;;;5.80;99.90;;;;;;4993322;28;20175;-64
2022/03/10 08:35:23;;;;;;;19.27;13.93;;;6.30;99.90;;;;;;4993570;28;20440;-65
2022/03/10 08:37:49;;;;;;;15.00;13.40;;;7.20;97.40;;;;;;4989577;28;20301;-66
2022/03/10 08:40:17;;;;;;;16.70;13.60;;;8.20;93.70;;;;;;4988661;28;20427;-66
2022/03/10 08:42:43;;;;;;;16.70;14.50;;;8.70;90.90;;;;;;4991978;28;20515;-65
2022/03/10 08:45:09;;;;;;;16.30;14.60;;;9.70;86.80;;;;;;4968906;28;20436;-65
2022/03/10 08:47:35;;;;;;;17.73;14.10;;;10.60;77.70;;;;;;4981149;28;20804;-66
2022/03/10 08:50:00;;;;;;;15.57;13.97;;;11.40;71.50;;;;;;4989821;28;20435;-66
2022/03/10 08:52:26;;;;;;;16.90;15.30;;;12.10;64.60;;;;;;4989487;28;20275;-64
2022/03/10 08:54:51;;;;;;;18.27;15.10;;;12.90;61.20;;;;;;4988845;28;20192;-64
2022/03/10 08:57:17;;;;;;;18.10;15.50;;;13.60;56.60;;;;;;4989285;28;20216;-64
2022/03/10 08:59:42;;;;;;;16.90;15.13;;;14.10;53.20;;;;;;4991220;28;20512;-64
2022/03/10 09:02:08;;;;;;;18.17;15.70;;;14.30;52.40;;;;;;4990608;28;20227;-64
2022/03/10 09:04:33;;;;;;;16.67;14.97;;;14.90;49.90;;;;;;4991994;28;20185;-63
2022/03/10 09:06:59;;;;;;;19.13;15.80;;;15.50;47.90;;;;;;4988249;28;20556;-64
2022/03/10 09:09:25;;;;;;;17.37;15.67;;;15.60;46.20;;;;;;4986294;28;20745;-67
2022/03/10 09:11:50;;;;;;;15.73;14.30;;;15.80;46.20;;;;;;4987139;28;20192;-67
2022/03/10 09:14:16;;;;;;;15.20;13.57;;;16.30;43.10;;;;;;4986862;28;20274;-67
2022/03/10 09:16:42;;;;;;;16.10;14.50;;;16.50;40.60;;;;;;4989871;28;20229;-67
2022/03/10 09:19:08;;;;;;;14.10;12.73;;;16.60;40.00;;;;;;4990576;28;20210;-67
2022/03/10 09:21:33;;;;;;;14.77;13.37;;;17.30;38.40;;;;;;4974183;28;20270;-67
2022/03/10 09:23:59;;;;;;;14.23;12.83;;;17.70;35.10;;;;;;4989396;28;21218;-67
2022/03/10 09:26:25;;;;;;;13.83;12.47;;;17.90;34.60;;;;;;4986649;28;20268;-67
2022/03/10 09:28:50;;;;;;;14.10;12.70;;;18.00;33.20;;;;;;4988851;28;20195;-67
2022/03/10 09:31:17;;;;;;;13.90;12.57;;;18.10;32.20;;;;;;4972217;28;20251;-67
2022/03/10 09:33:44;;;;;;;13.30;12.10;;;18.50;31.80;;;;;;4987866;28;20196;-67
2022/03/10 09:36:10;;;;;;;14.77;13.30;;;18.80;31.50;;;;;;4991611;28;20460;-69
2022/03/10 09:38:35;;;;;;;14.27;12.87;;;19.20;30.30;;;;;;4990796;28;20439;-67
2022/03/10 09:41:01;;;;;;;14.87;13.37;;;19.70;29.90;;;;;;4993605;28;20200;-67
2022/03/10 09:43:31;;;;;;;15.13;13.53;;;19.70;28.50;;;;;;4990789;28;20525;-67
2022/03/10 09:45:58;;;;;;;14.87;13.53;;;19.60;28.70;;;;;;4989770;28;20189;-67
2022/03/10 09:48:24;;;;;;;13.03;11.73;;;19.40;28.10;;;;;;4991067;28;20797;-65
2022/03/10 09:50:50;;;;;;;14.73;13.33;;;19.70;27.80;;;;;;4990108;28;20911;-65
2022/03/10 09:53:16;;;;;;;13.90;12.53;;;19.70;27.10;;;;;;4990821;28;20429;-68
2022/03/10 09:55:42;;;;;;;12.77;11.57;;;19.90;26.60;;;;;;4989466;28;20241;-67
2022/03/10 09:58:08;;;;;;;12.63;11.43;;;20.30;27.10;;;;;;4991194;28;20510;-68
2022/03/10 10:00:34;;;;;;;13.70;12.40;;;20.50;26.20;;;;;;4991618;28;20414;-67
2022/03/10 10:03:00;;;;;;;12.67;11.40;;;20.70;25.50;;;;;;4991431;28;20426;-67
2022/03/10 10:05:26;;;;;;;13.23;11.93;;;20.70;25.90;;;;;;4991437;28;20187;-68
2022/03/10 10:08:13;;;;;;;12.90;11.80;;;20.50;25.40;;;;;;4991874;28;20666;-67
2022/03/10 10:10:42;;;;;;;12.50;11.40;;;20.50;25.10;;;;;;4991453;28;21121;-70
2022/03/10 10:13:07;;;;;;;13.47;12.37;;;20.50;25.30;;;;;;4991998;28;20535;-68
2022/03/10 10:15:39;;;;;;;12.70;11.50;;;20.80;24.90;;;;;;4992128;28;20434;-68
2022/03/10 10:18:06;;;;;;;13.37;12.17;;;21.30;24.60;;;;;;4991569;28;20802;-67
2022/03/10 10:20:53;;;;;;;13.17;12.03;;;21.40;23.80;;;;;;4990523;28;20438;-68
2022/03/10 10:23:27;;;;;;;12.67;11.67;;;21.20;23.50;;;;;;4991374;28;21177;-67
2022/03/10 10:25:54;;;;;;;11.80;10.70;;;21.30;23.40;;;;;;4991766;28;20510;-68
2022/03/10 10:28:23;;;;;;;10.60;9.70;;;21.50;23.80;;;;;;4991890;28;20422;-68
2022/03/10 10:31:02;;;;;;;11.70;10.70;;;21.60;23.60;;;;;;4990741;28;20608;-71
2022/03/10 10:33:29;;;;;;;11.33;10.33;;;21.30;22.90;;;;;;4994350;28;20455;-68
2022/03/10 10:36:23;;;;;;;10.67;9.77;;;20.60;23.40;;;;;;4994641;28;20521;-68
2022/03/10 10:38:49;;;;;;;10.27;9.37;;;20.70;23.70;;;;;;4991421;28;20514;-68
2022/03/10 10:41:29;;;;;;;8.77;8.07;;;20.90;23.60;;;;;;4991259;28;20544;-68
2022/03/10 10:44:04;;;;;;;9.67;8.77;;;21.20;23.60;;;;;;4990789;28;20431;-68
2022/03/10 10:46:33;;;;;;;9.30;8.60;;;21.20;23.50;;;;;;4990570;28;20438;-67
2022/03/10 10:49:02;;;;;;;9.97;9.07;;;21.30;24.00;;;;;;4991523;28;20431;-67
2022/03/10 10:51:31;;;;;;;9.50;8.73;;;21.70;24.50;;;;;;4990518;28;20985;-68
2022/03/10 10:53:59;;;;;;;9.43;8.63;;;21.60;23.90;;;;;;4990417;28;20450;-68
2022/03/10 10:56:25;;;;;;;9.80;9.00;;;21.90;23.00;;;;;;4990373;28;20463;-68
2022/03/10 10:58:54;;;;;;;10.07;9.27;;;21.40;23.20;;;;;;4990853;28;20746;-68
2022/03/10 11:01:26;;;;;;;10.57;9.60;;;21.70;23.10;;;;;;4984875;28;20473;-68
2022/03/10 11:03:52;;;;;;;9.93;8.93;;;22.00;22.40;;;;;;4995857;28;20516;-68
2022/03/10 11:06:21;;;;;;;10.10;9.20;;;22.10;22.50;;;;;;4996094;28;20828;-68
2022/03/10 11:08:47;;;;;;;10.17;9.37;;;22.50;22.30;;;;;;4966786;28;20455;-68
2022/03/10 11:11:15;;;;;;;9.90;9.10;;;22.50;21.90;;;;;;4990557;28;20439;-68
2022/03/10 11:13:43;;;;;;;10.20;9.40;;;22.70;21.60;;;;;;4988547;28;20319;-68
2022/03/10 11:16:11;;;;;;;9.63;8.73;;;23.00;22.00;;;;;;4989365;28;20475;-64
2022/03/10 11:18:39;;;;;;;10.30;9.40;;;23.20;21.20;;;;;;4988247;28;20859;-68
2022/03/10 11:21:37;;;;;;;10.80;9.90;;;23.30;21.40;;;;;;4989152;28;20435;-62
2022/03/10 11:24:46;;;;;;;10.70;9.90;;;23.10;20.60;;;;;;4986306;28;20437;-67
2022/03/10 11:27:26;;;;;;;10.00;9.13;;;22.80;20.10;;;;;;4964635;28;20459;-68
2022/03/10 11:29:54;;;;;;;10.47;9.57;;;22.50;22.10;;;;;;4987118;28;20418;-68
2022/03/10 11:32:28;;;;;;;11.20;10.10;;;22.90;21.80;;;;;;4980501;28;20434;-68
2022/03/10 11:34:58;;;;;;;10.90;10.00;;;23.40;23.20;;;;;;4982641;28;21362;-68
2022/03/10 11:37:42;;;;;;;9.70;8.90;;;23.30;21.50;;;;;;4984360;28;20460;-68
2022/03/10 11:40:13;;;;;;;11.70;10.70;;;23.80;21.30;;;;;;4978256;28;20413;-68
2022/03/10 11:42:40;;;;;;;11.83;10.87;;;24.00;21.30;;;;;;4983799;28;20451;-68
2022/03/10 11:45:15;;;;;;;11.90;10.90;;;23.50;22.60;;;;;;4987919;28;20520;-68
2022/03/10 11:47:42;;;;;;;10.80;10.00;;;23.30;23.50;;;;;;4989131;28;20430;-69
2022/03/10 11:50:22;;;;;;;11.90;10.90;;;23.40;23.00;;;;;;4989846;28;20463;-68
2022/03/10 11:53:05;;;;;;;10.47;9.57;;;23.20;23.30;;;;;;4989282;28;20420;-67
2022/03/10 11:55:46;;;;;;;11.90;10.93;;;23.30;22.40;;;;;;4984945;28;20915;-68
2022/03/10 11:58:13;;;;;;;10.57;9.67;;;23.20;23.20;;;;;;4987848;28;20520;-68
2022/03/10 12:00:44;;;;;;;11.33;10.23;;;23.50;22.90;;;;;;4969788;28;20754;-68
2022/03/10 12:03:33;;;;;;;11.37;10.47;;;23.20;23.40;;;;;;4978421;28;20519;-66
2022/03/10 12:06:07;;;;;;;11.33;10.33;;;23.60;22.90;;;;;;4979333;28;20414;-67
2022/03/10 12:08:38;;;;;;;11.80;10.90;;;23.60;23.00;;;;;;4975659;28;20427;-67
2022/03/10 12:11:06;;;;;;;13.20;12.10;;;24.00;23.20;;;;;;4979591;28;21184;-67
2022/03/10 12:13:39;;;;;;;12.70;11.50;;;24.10;22.60;;;;;;4968395;28;20567;-67
2022/03/10 12:16:27;;;;;;;13.60;12.50;;;23.10;23.20;;;;;;4979213;28;20465;-67
2022/03/10 12:18:54;;;;;;;13.30;12.10;;;22.60;23.60;;;;;;4982585;28;20444;-67
2022/03/10 12:21:28;;;;;;;14.97;13.67;;;22.50;23.20;;;;;;4969048;28;20494;-66
2022/03/10 12:24:04;;;;;;;16.70;15.20;;;22.10;24.30;;;;;;4985141;28;20424;-67
2022/03/10 12:26:33;;;;;;;14.97;13.57;;;21.90;23.40;;;;;;4982575;28;21192;-67
2022/03/10 12:29:01;;;;;;;17.13;15.73;;;21.70;24.20;;;;;;4983166;28;20852;-67
2022/03/10 12:31:29;;;;;;;15.20;13.90;;;21.30;24.50;;;;;;4987329;28;20424;-68
2022/03/10 12:33:59;;;;;;;16.03;14.43;;;21.40;24.70;;;;;;4987588;28;20427;-68
2022/03/10 12:36:41;;;;;;;19.73;17.93;;;21.80;24.90;;;;;;4982780;28;20454;-67
2022/03/10 12:39:12;;;;;;;15.70;14.20;;;21.50;24.30;;;;;;4982564;28;20416;-65